Time;durP1;ratioP1;P1;durP2;ratioP2;P2;SDS_P1;SDS_P2;PMS_P1;PMS_P2;Temp;Humidity;BMP_temperature;BMP_pressure;BME280_temperature;BME280_humidity;BME280_pressure;Samples;Min_cycle;Max_cycle;Signal;HPM_P1;HPM_P2
2022/01/20 00:00:31;;;;;;;13.72;10.10;;;20.70;80.70;;;;;;1890758;74;21165;-82
2022/01/20 00:03:00;;;;;;;14.23;10.45;;;20.80;80.50;;;;;;1957127;72;21218;-82
2022/01/20 00:28:27;;;;;;;15.05;10.78;;;20.80;80.40;;;;;;1956296;72;21604;-81
2022/01/20 00:31:05;;;;;;;14.73;9.75;;;20.90;81.60;;;;;;1910925;73;21127;-82
2022/01/20 00:33:40;;;;;;;13.30;8.65;;;20.90;80.50;;;;;;1957903;72;21059;-83
2022/01/20 00:38:37;;;;;;;12.58;9.15;;;20.90;80.30;;;;;;1963976;72;21572;-82
2022/01/20 00:41:14;;;;;;;18.05;9.95;;;20.90;80.10;;;;;;1960465;71;21096;-84
2022/01/20 00:43:50;;;;;;;13.35;9.60;;;21.00;79.90;;;;;;1906476;73;21081;-73
2022/01/20 00:46:21;;;;;;;11.53;9.15;;;21.00;79.80;;;;;;1910962;73;21205;-73
2022/01/20 00:48:52;;;;;;;16.35;10.28;;;21.00;79.60;;;;;;1878401;74;21535;-75
2022/01/20 00:51:24;;;;;;;39.98;12.05;;;21.00;80.50;;;;;;1887993;74;21538;-72
2022/01/20 00:53:56;;;;;;;16.05;9.23;;;21.00;79.40;;;;;;1874325;74;21583;-72
2022/01/20 00:56:27;;;;;;;16.90;10.70;;;21.10;79.40;;;;;;1900610;74;21244;-73
2022/01/20 00:58:57;;;;;;;13.43;10.23;;;21.00;79.50;;;;;;1885471;74;21158;-72
2022/01/20 01:01:28;;;;;;;13.78;9.43;;;21.10;79.90;;;;;;1935651;72;21170;-73
2022/01/20 01:03:59;;;;;;;13.50;9.70;;;21.00;79.80;;;;;;1892246;74;21127;-73
2022/01/20 01:09:05;;;;;;;15.23;9.88;;;21.10;79.90;;;;;;1966790;72;21227;-72
2022/01/20 01:11:39;;;;;;;13.35;9.65;;;21.20;79.90;;;;;;1958641;72;21689;-74
2022/01/20 01:14:10;;;;;;;13.53;9.48;;;21.20;79.70;;;;;;1969005;71;21084;-73
2022/01/20 01:21:46;;;;;;;14.25;10.20;;;21.30;79.30;;;;;;1900026;73;21068;-72
2022/01/20 01:24:15;;;;;;;14.75;9.85;;;21.30;79.40;;;;;;1911074;73;21071;-72
2022/01/20 01:26:46;;;;;;;16.70;10.82;;;21.40;79.20;;;;;;1902668;74;21163;-71
2022/01/20 01:29:37;;;;;;;17.45;10.90;;;21.40;79.30;;;;;;1957660;71;21562;-72
2022/01/20 01:31:48;;;;;;;19.73;10.98;;;21.40;79.50;;;;;;1955740;72;21189;-72
2022/01/20 01:34:21;;;;;;;16.60;10.03;;;21.40;79.40;;;;;;1975321;71;21635;-72
2022/01/20 01:37:04;;;;;;;16.97;11.28;;;21.50;79.40;;;;;;1894511;74;21150;-72
2022/01/20 01:39:22;;;;;;;13.72;9.85;;;21.50;79.20;;;;;;1876692;74;21129;-72
2022/01/20 01:41:56;;;;;;;13.75;9.85;;;21.60;78.90;;;;;;1889606;74;22351;-73
2022/01/20 01:44:29;;;;;;;16.05;10.15;;;21.60;78.90;;;;;;1903442;73;21520;-72
2022/01/20 01:47:00;;;;;;;16.10;10.18;;;21.60;79.10;;;;;;1953356;72;22031;-73
2022/01/20 01:49:31;;;;;;;15.18;10.03;;;21.70;79.10;;;;;;1964901;72;21633;-72
2022/01/20 01:52:02;;;;;;;13.83;8.98;;;21.70;78.90;;;;;;1968590;71;21056;-71
2022/01/20 01:54:33;;;;;;;14.13;9.20;;;21.80;78.60;;;;;;1958013;72;21200;-72
2022/01/20 01:57:09;;;;;;;13.28;8.20;;;21.90;78.40;;;;;;1967995;72;21709;-71
2022/01/20 01:59:36;;;;;;;15.83;9.85;;;21.90;78.20;;;;;;1958315;71;22001;-73
2022/01/20 02:02:07;;;;;;;13.88;8.38;;;22.00;77.90;;;;;;1955805;72;21092;-72
2022/01/20 02:04:38;;;;;;;10.68;8.05;;;22.10;77.50;;;;;;1952040;72;21163;-71
2022/01/20 02:17:51;;;;;;;12.45;8.68;;;22.10;77.10;;;;;;1891273;74;21252;-72
2022/01/20 02:19:55;;;;;;;13.68;8.68;;;22.30;76.60;;;;;;1899147;73;21209;-71
2022/01/20 02:22:24;;;;;;;12.70;7.45;;;22.30;76.20;;;;;;1909199;73;21142;-71
2022/01/20 02:24:55;;;;;;;12.53;8.63;;;22.40;76.20;;;;;;1968382;71;21179;-73
2022/01/20 02:27:25;;;;;;;10.85;7.45;;;22.40;75.80;;;;;;1917050;73;21606;-73
2022/01/20 02:29:56;;;;;;;13.10;7.33;;;22.50;76.20;;;;;;1895686;74;21226;-73
2022/01/20 02:32:47;;;;;;;11.75;7.42;;;22.50;76.00;;;;;;1957680;72;21106;-72
2022/01/20 02:35:18;;;;;;;12.58;8.03;;;22.60;75.90;;;;;;1853116;76;21158;-72
2022/01/20 02:37:57;;;;;;;11.57;8.10;;;22.60;76.00;;;;;;1903262;74;21195;-72
2022/01/20 02:44:50;;;;;;;12.88;8.23;;;22.60;76.10;;;;;;1852040;75;21633;-73
2022/01/20 02:45:26;;;;;;;11.48;7.45;;;22.70;75.70;;;;;;1819328;76;21126;-73
2022/01/20 02:47:56;;;;;;;10.25;7.60;;;22.80;75.30;;;;;;1857643;76;21713;-73
2022/01/20 02:50:27;;;;;;;12.28;8.08;;;22.90;75.10;;;;;;1895457;73;21158;-73
2022/01/20 02:52:58;;;;;;;12.58;8.53;;;22.90;74.90;;;;;;1891282;74;21791;-72
2022/01/20 02:55:28;;;;;;;12.53;8.23;;;23.00;74.80;;;;;;1898875;74;21264;-73
2022/01/20 02:57:59;;;;;;;10.90;8.23;;;23.00;74.60;;;;;;1903913;74;21194;-72
2022/01/20 03:00:33;;;;;;;11.50;7.75;;;23.00;74.70;;;;;;1944901;72;21172;-72
2022/01/20 03:03:04;;;;;;;11.33;8.28;;;23.10;74.60;;;;;;1955326;72;21167;-73
2022/01/20 03:05:36;;;;;;;12.30;9.20;;;23.10;75.40;;;;;;1951448;72;21214;-72
2022/01/20 03:08:07;;;;;;;15.65;10.00;;;23.10;74.40;;;;;;1960843;72;21135;-72
2022/01/20 03:10:38;;;;;;;13.98;9.20;;;23.20;74.30;;;;;;1949126;72;21205;-72
2022/01/20 03:13:09;;;;;;;12.23;9.75;;;23.20;74.20;;;;;;1910018;73;21579;-72
2022/01/20 03:15:43;;;;;;;15.90;9.60;;;23.30;74.20;;;;;;1911776;73;21084;-73
2022/01/20 03:18:14;;;;;;;12.50;8.83;;;23.30;74.30;;;;;;1910746;73;21171;-71
2022/01/20 03:20:45;;;;;;;12.30;9.23;;;23.40;74.10;;;;;;1927650;73;21145;-73
2022/01/20 03:23:16;;;;;;;15.70;9.58;;;23.40;73.80;;;;;;1960071;72;21184;-72
2022/01/20 03:25:47;;;;;;;14.83;9.70;;;23.50;73.60;;;;;;1939554;72;21159;-73
2022/01/20 03:28:18;;;;;;;14.40;9.60;;;23.50;73.50;;;;;;1948281;72;21669;-73
2022/01/20 03:30:48;;;;;;;13.05;8.58;;;23.50;73.30;;;;;;1955461;72;21059;-73
2022/01/20 03:33:19;;;;;;;17.12;8.90;;;23.60;73.60;;;;;;1956141;72;21200;-73
2022/01/20 03:35:52;;;;;;;17.17;9.45;;;23.60;73.40;;;;;;1945141;72;21622;-73
2022/01/20 03:38:22;;;;;;;14.73;9.15;;;23.70;73.20;;;;;;1884944;73;21203;-73
2022/01/20 03:40:53;;;;;;;12.65;9.70;;;23.80;73.00;;;;;;1930181;73;21263;-73
2022/01/20 03:43:24;;;;;;;11.85;8.05;;;23.90;72.90;;;;;;1918314;73;21577;-73
2022/01/20 03:45:57;;;;;;;16.85;9.43;;;24.00;72.60;;;;;;1887330;74;21168;-74
2022/01/20 03:48:29;;;;;;;13.03;9.48;;;24.10;72.60;;;;;;1894275;73;21084;-72
2022/01/20 03:51:00;;;;;;;12.35;8.73;;;24.20;72.20;;;;;;1916421;73;21175;-73
2022/01/20 03:53:33;;;;;;;11.08;8.38;;;24.30;71.90;;;;;;1931277;72;22001;-72
2022/01/20 03:56:05;;;;;;;14.43;8.95;;;24.50;71.50;;;;;;1940299;72;21137;-74
2022/01/20 03:58:36;;;;;;;12.63;8.68;;;24.60;71.10;;;;;;1877332;75;21445;-73
2022/01/20 04:01:06;;;;;;;15.53;8.98;;;24.70;70.80;;;;;;1855826;76;21205;-73
2022/01/20 04:03:38;;;;;;;13.45;8.35;;;24.70;70.70;;;;;;1873417;74;22170;-72
2022/01/20 04:06:08;;;;;;;18.00;8.58;;;24.80;70.70;;;;;;1912900;73;21592;-72
2022/01/20 04:08:41;;;;;;;21.25;9.78;;;25.00;70.40;;;;;;1922262;73;21135;-72
2022/01/20 04:11:15;;;;;;;14.33;8.73;;;25.10;70.10;;;;;;1953417;72;21128;-73
2022/01/20 04:13:45;;;;;;;12.85;8.88;;;25.20;68.90;;;;;;1965518;72;21142;-72
2022/01/20 04:16:19;;;;;;;12.13;8.13;;;25.40;68.90;;;;;;1891657;74;21384;-73
2022/01/20 04:18:55;;;;;;;14.95;8.73;;;25.50;68.80;;;;;;1872718;75;21099;-72
2022/01/20 04:21:27;;;;;;;13.70;8.68;;;25.50;68.50;;;;;;1881428;75;21179;-73
2022/01/20 04:24:00;;;;;;;20.08;8.10;;;25.70;68.40;;;;;;1901844;74;21086;-73
2022/01/20 04:26:31;;;;;;;10.63;8.05;;;25.80;67.80;;;;;;1908841;73;21244;-73
2022/01/20 04:29:02;;;;;;;12.78;8.35;;;25.90;67.40;;;;;;1907479;73;21155;-71
2022/01/20 04:31:35;;;;;;;11.50;8.10;;;26.00;67.60;;;;;;1924492;73;21183;-73
2022/01/20 04:34:08;;;;;;;11.68;7.80;;;26.10;67.00;;;;;;1934049;73;21261;-73
2022/01/20 04:36:43;;;;;;;14.68;7.15;;;26.20;66.60;;;;;;1914933;73;21097;-72
2022/01/20 04:39:16;;;;;;;12.73;7.03;;;26.40;65.80;;;;;;1919307;73;21150;-72
2022/01/20 04:41:47;;;;;;;8.98;6.37;;;26.50;67.00;;;;;;1901976;74;21086;-72
2022/01/20 04:44:32;;;;;;;10.10;7.00;;;26.70;65.90;;;;;;1913380;73;21124;-72
2022/01/20 04:47:08;;;;;;;12.58;6.70;;;26.70;65.10;;;;;;1918331;73;21595;-72
2022/01/20 04:59:30;;;;;;;11.10;6.17;;;26.80;64.30;;;;;;1928456;73;21531;-73
2022/01/20 05:02:03;;;;;;;9.98;7.03;;;26.80;64.50;;;;;;1871356;74;21171;-72
2022/01/20 05:04:35;;;;;;;9.58;6.47;;;26.90;64.60;;;;;;1881792;75;21153;-73
2022/01/20 05:07:07;;;;;;;9.00;5.87;;;26.90;63.40;;;;;;1880479;74;21619;-72
2022/01/20 05:09:38;;;;;;;10.60;6.53;;;27.10;63.00;;;;;;1879005;74;21229;-71
2022/01/20 05:12:13;;;;;;;8.48;5.55;;;27.20;62.70;;;;;;1911353;73;21102;-71
2022/01/20 05:14:41;;;;;;;12.07;6.85;;;27.30;63.10;;;;;;1950575;72;21104;-71
2022/01/20 05:17:12;;;;;;;8.13;5.50;;;27.30;62.00;;;;;;1961059;72;21157;-72
2022/01/20 05:19:43;;;;;;;11.75;7.25;;;27.30;62.60;;;;;;1952736;72;21615;-72
2022/01/20 05:22:14;;;;;;;11.30;6.75;;;27.30;63.40;;;;;;1962787;72;21115;-71
2022/01/20 05:24:46;;;;;;;8.23;5.83;;;27.30;62.50;;;;;;1949992;72;21184;-71
2022/01/20 05:27:18;;;;;;;9.58;5.97;;;27.40;62.40;;;;;;1941517;72;21184;-72
2022/01/20 05:29:48;;;;;;;11.55;6.12;;;27.40;62.50;;;;;;1954194;71;21504;-72
2022/01/20 05:32:19;;;;;;;9.90;6.42;;;27.50;62.00;;;;;;1938551;72;21116;-72
2022/01/20 05:34:51;;;;;;;11.80;6.03;;;27.60;62.40;;;;;;1957465;72;21122;-71
2022/01/20 05:37:22;;;;;;;8.70;5.90;;;27.70;61.30;;;;;;1961312;72;21159;-71
2022/01/20 05:39:53;;;;;;;13.13;6.15;;;27.80;61.40;;;;;;1960990;72;21151;-71
2022/01/20 05:42:24;;;;;;;11.28;6.45;;;27.80;61.10;;;;;;1928845;72;21597;-72
2022/01/20 05:44:55;;;;;;;16.87;6.85;;;27.90;60.60;;;;;;1956661;72;21141;-71
2022/01/20 05:47:28;;;;;;;7.62;5.95;;;27.90;61.30;;;;;;1957265;72;21473;-71
2022/01/20 05:49:57;;;;;;;9.60;6.30;;;28.00;60.60;;;;;;1920970;73;21110;-71
2022/01/20 05:52:28;;;;;;;7.75;5.87;;;28.10;59.90;;;;;;1917780;73;21234;-72
2022/01/20 05:55:00;;;;;;;8.85;6.78;;;28.00;59.70;;;;;;1893486;74;21617;-72
2022/01/20 05:57:31;;;;;;;9.73;7.35;;;27.90;60.00;;;;;;1884330;74;21714;-71
2022/01/20 06:00:02;;;;;;;10.75;7.65;;;27.90;60.70;;;;;;1917962;74;21147;-72
2022/01/20 06:03:35;;;;;;;10.95;7.67;;;27.90;60.60;;;;;;1891289;74;21602;-72
2022/01/20 06:05:05;;;;;;;9.45;6.60;;;27.90;60.70;;;;;;1865590;75;21210;-71
2022/01/20 06:07:37;;;;;;;10.00;5.50;;;27.90;60.80;;;;;;1882586;74;21174;-72
2022/01/20 06:10:08;;;;;;;7.78;4.87;;;28.00;60.50;;;;;;1951832;72;21170;-73
2022/01/20 06:12:39;;;;;;;8.43;5.62;;;28.00;59.50;;;;;;1910568;73;21645;-73
2022/01/20 06:15:10;;;;;;;10.25;6.03;;;28.10;59.50;;;;;;1920505;74;21183;-73
2022/01/20 06:17:43;;;;;;;10.90;5.37;;;28.20;59.60;;;;;;1923284;73;21592;-73
2022/01/20 06:20:15;;;;;;;7.92;5.15;;;28.30;59.10;;;;;;1908624;74;21186;-72
2022/01/20 06:22:45;;;;;;;9.73;6.40;;;28.40;59.00;;;;;;1906522;73;21713;-71
2022/01/20 06:25:16;;;;;;;10.90;6.70;;;28.40;58.80;;;;;;1961121;72;21154;-71
2022/01/20 06:27:47;;;;;;;10.72;6.60;;;28.50;59.60;;;;;;1958253;72;21151;-71
2022/01/20 06:30:18;;;;;;;12.15;6.03;;;28.50;59.20;;;;;;1968373;72;21138;-72
2022/01/20 06:32:50;;;;;;;10.63;5.83;;;28.60;60.90;;;;;;1941797;72;21217;-72
2022/01/20 06:35:20;;;;;;;9.08;5.90;;;28.60;58.90;;;;;;1945249;72;21111;-72
2022/01/20 06:37:51;;;;;;;8.25;5.50;;;28.70;58.80;;;;;;1941264;72;21153;-72
2022/01/20 06:40:22;;;;;;;8.13;5.87;;;28.70;58.70;;;;;;1906135;73;21084;-72
2022/01/20 06:42:53;;;;;;;8.00;5.20;;;28.70;58.10;;;;;;1899397;74;21201;-72
2022/01/20 06:45:23;;;;;;;8.53;5.65;;;28.70;57.70;;;;;;1880115;74;21618;-72
2022/01/20 06:47:54;;;;;;;11.22;6.22;;;28.70;58.20;;;;;;1866418;73;21200;-72
2022/01/20 06:50:25;;;;;;;9.05;5.28;;;28.70;58.80;;;;;;1920017;73;21162;-72
2022/01/20 06:52:57;;;;;;;11.33;6.33;;;28.70;58.20;;;;;;1917454;73;21095;-71
2022/01/20 06:55:27;;;;;;;9.50;6.33;;;28.70;59.10;;;;;;1928303;72;21212;-72
2022/01/20 06:57:58;;;;;;;7.47;5.50;;;28.70;58.90;;;;;;1944487;71;21111;-72
2022/01/20 07:00:29;;;;;;;10.55;5.97;;;28.60;59.10;;;;;;1936679;72;21147;-73
2022/01/20 07:03:00;;;;;;;11.97;5.58;;;28.60;58.80;;;;;;1945643;72;21162;-73
2022/01/20 07:05:30;;;;;;;18.37;6.50;;;28.60;58.90;;;;;;1878588;74;21189;-73
2022/01/20 07:08:01;;;;;;;8.98;6.20;;;28.70;58.60;;;;;;1862776;74;21174;-71
2022/01/20 07:10:32;;;;;;;8.58;5.72;;;28.70;58.20;;;;;;1876849;74;21716;-71
2022/01/20 07:13:02;;;;;;;8.90;5.70;;;28.60;58.00;;;;;;1902684;73;21096;-72
2022/01/20 07:15:33;;;;;;;16.07;6.37;;;28.60;59.20;;;;;;1876073;75;21542;-72
2022/01/20 07:18:04;;;;;;;8.30;5.50;;;28.60;59.10;;;;;;1919068;73;21689;-71
2022/01/20 07:20:35;;;;;;;12.60;6.03;;;28.60;58.90;;;;;;1946089;72;21181;-71
2022/01/20 07:23:07;;;;;;;8.88;6.25;;;28.60;58.80;;;;;;1942561;72;21059;-72
2022/01/20 07:25:37;;;;;;;8.03;5.30;;;28.70;59.10;;;;;;1875330;74;21798;-72
2022/01/20 07:28:08;;;;;;;8.25;5.47;;;28.70;58.70;;;;;;1902876;73;21172;-73
2022/01/20 07:30:40;;;;;;;9.38;5.50;;;28.70;58.40;;;;;;1904437;73;21126;-71
2022/01/20 07:33:11;;;;;;;11.03;5.55;;;28.70;58.20;;;;;;1882999;74;21757;-72
2022/01/20 07:35:42;;;;;;;9.40;5.92;;;28.60;57.90;;;;;;1854413;75;21497;-72
2022/01/20 07:38:13;;;;;;;9.05;6.10;;;28.60;58.40;;;;;;1901047;73;21665;-72
2022/01/20 07:40:43;;;;;;;11.83;5.62;;;28.70;58.00;;;;;;1874698;75;21758;-71
2022/01/20 07:43:14;;;;;;;9.78;6.08;;;28.70;57.60;;;;;;1889169;75;21203;-71
2022/01/20 07:45:45;;;;;;;9.85;5.42;;;28.70;57.90;;;;;;1888783;74;21174;-71
2022/01/20 07:48:16;;;;;;;10.08;6.03;;;28.60;58.20;;;;;;1903988;73;21128;-72
2022/01/20 07:50:47;;;;;;;10.28;5.60;;;28.60;58.00;;;;;;1884893;74;21771;-71
2022/01/20 07:53:17;;;;;;;10.13;5.90;;;28.50;57.90;;;;;;1910155;73;21134;-71
2022/01/20 07:55:48;;;;;;;8.05;5.50;;;28.50;58.50;;;;;;1941956;73;21197;-72
2022/01/20 07:58:19;;;;;;;8.40;5.65;;;28.50;58.60;;;;;;1895711;74;21153;-72
2022/01/20 08:00:50;;;;;;;8.88;6.60;;;28.60;58.50;;;;;;1895554;74;21657;-71
2022/01/20 08:03:22;;;;;;;8.88;6.60;;;28.60;58.00;;;;;;1882793;74;21095;-72
2022/01/20 08:05:53;;;;;;;9.50;6.15;;;28.60;57.80;;;;;;1866590;74;21653;-72
2022/01/20 08:08:24;;;;;;;11.30;6.28;;;28.70;57.90;;;;;;1871704;74;21224;-71
2022/01/20 08:10:55;;;;;;;8.65;5.42;;;28.70;57.80;;;;;;1949281;72;21122;-71
2022/01/20 08:13:27;;;;;;;8.58;5.78;;;28.80;57.40;;;;;;1940227;72;21160;-71
2022/01/20 08:15:58;;;;;;;9.25;5.80;;;28.80;57.30;;;;;;1923470;73;21120;-71
2022/01/20 08:18:29;;;;;;;9.05;5.83;;;28.70;57.30;;;;;;1952811;72;21138;-71
2022/01/20 08:21:01;;;;;;;10.28;6.10;;;28.70;57.80;;;;;;1934900;73;21213;-71
2022/01/20 08:23:31;;;;;;;13.40;5.70;;;28.60;57.50;;;;;;1955399;72;21115;-71
2022/01/20 08:26:02;;;;;;;9.45;5.95;;;28.50;58.30;;;;;;1918968;73;21204;-73
2022/01/20 08:28:36;;;;;;;8.70;5.70;;;28.50;58.60;;;;;;1956433;72;21217;-71
2022/01/20 08:31:06;;;;;;;7.78;5.65;;;28.50;58.40;;;;;;1851503;75;21117;-71
2022/01/20 08:33:37;;;;;;;9.65;5.95;;;28.40;58.20;;;;;;1895261;73;21250;-72
2022/01/20 08:36:08;;;;;;;8.15;5.42;;;28.40;58.30;;;;;;1939482;72;21217;-71
2022/01/20 08:38:40;;;;;;;7.53;5.90;;;28.50;58.30;;;;;;1947672;72;21467;-72
2022/01/20 08:41:10;;;;;;;11.20;5.75;;;28.50;58.30;;;;;;1889629;74;21080;-71
2022/01/20 08:43:41;;;;;;;9.43;6.22;;;28.50;57.90;;;;;;1877875;74;21133;-73
2022/01/20 08:46:14;;;;;;;9.83;5.70;;;28.60;58.10;;;;;;1865969;75;21184;-71
2022/01/20 08:48:44;;;;;;;8.25;5.92;;;28.60;58.70;;;;;;1895416;74;21169;-73
2022/01/20 08:51:16;;;;;;;8.23;6.00;;;28.60;57.90;;;;;;1908014;73;21150;-72
2022/01/20 08:53:47;;;;;;;8.63;5.90;;;28.60;58.20;;;;;;1881029;74;21126;-72
2022/01/20 08:56:18;;;;;;;9.43;5.90;;;28.60;58.10;;;;;;1888410;74;21148;-72
2022/01/20 08:58:50;;;;;;;9.65;6.30;;;28.60;58.30;;;;;;1883441;74;21068;-72
2022/01/20 09:01:21;;;;;;;10.95;6.60;;;28.60;58.00;;;;;;1883297;73;21588;-72
2022/01/20 09:03:51;;;;;;;12.93;6.28;;;28.60;57.70;;;;;;1963634;72;21716;-73
2022/01/20 09:06:22;;;;;;;13.55;6.90;;;28.50;57.90;;;;;;1951876;72;21072;-72
2022/01/20 09:08:53;;;;;;;9.60;6.10;;;28.50;57.90;;;;;;1927514;73;21153;-72
2022/01/20 09:11:30;;;;;;;9.90;6.00;;;28.60;58.20;;;;;;1911074;74;21220;-72
2022/01/20 09:16:28;;;;;;;7.60;5.78;;;28.60;57.90;;;;;;1887307;74;21275;-73
2022/01/20 09:18:59;;;;;;;9.85;5.83;;;28.60;58.20;;;;;;1930486;74;21159;-73
2022/01/20 09:21:31;;;;;;;12.03;6.20;;;28.60;58.00;;;;;;1957962;72;21712;-73
2022/01/20 09:24:03;;;;;;;13.45;6.40;;;28.60;57.80;;;;;;1953402;72;21118;-72
2022/01/20 09:26:34;;;;;;;15.00;7.20;;;28.60;57.80;;;;;;1896223;74;21206;-72
2022/01/20 09:29:05;;;;;;;13.72;7.05;;;28.60;58.00;;;;;;1879748;75;21166;-72
2022/01/20 09:31:38;;;;;;;11.45;6.30;;;28.60;58.00;;;;;;1892713;75;21193;-73
2022/01/20 09:34:09;;;;;;;11.10;6.40;;;28.50;58.10;;;;;;1887104;75;21322;-72
2022/01/20 09:36:39;;;;;;;9.13;5.90;;;28.50;58.40;;;;;;1879209;75;21207;-73
2022/01/20 09:39:10;;;;;;;13.45;7.05;;;28.50;58.30;;;;;;1881250;75;21784;-72
2022/01/20 09:41:41;;;;;;;16.90;11.20;;;28.40;58.50;;;;;;1881794;74;21174;-72
2022/01/20 09:44:20;;;;;;;8.25;6.30;;;28.40;58.70;;;;;;1842666;75;21140;-73
2022/01/20 09:46:48;;;;;;;10.00;7.12;;;28.40;59.00;;;;;;1882825;75;21108;-72
2022/01/20 09:49:19;;;;;;;10.72;7.67;;;28.40;58.90;;;;;;1898064;75;21159;-72
2022/01/20 09:51:51;;;;;;;11.68;7.40;;;28.30;58.90;;;;;;1873258;75;21183;-72
2022/01/20 09:54:22;;;;;;;12.88;7.83;;;28.30;59.20;;;;;;1885311;74;21699;-72
2022/01/20 09:56:53;;;;;;;10.75;6.53;;;28.20;59.40;;;;;;1876111;75;21128;-72
2022/01/20 09:59:24;;;;;;;10.98;7.25;;;28.20;59.50;;;;;;1892212;75;21088;-73
2022/01/20 10:01:56;;;;;;;14.87;7.45;;;28.10;59.50;;;;;;1893267;75;21147;-72
2022/01/20 10:04:29;;;;;;;11.83;7.67;;;28.10;59.50;;;;;;1899883;75;21265;-74
2022/01/20 10:07:03;;;;;;;13.78;7.67;;;28.10;59.80;;;;;;1880109;75;21080;-72
2022/01/20 10:09:37;;;;;;;11.60;7.37;;;28.00;60.00;;;;;;1946859;72;21151;-72
2022/01/20 10:12:10;;;;;;;10.60;7.78;;;27.90;60.00;;;;;;1937858;72;21151;-72
2022/01/20 10:14:42;;;;;;;11.90;8.43;;;27.90;60.30;;;;;;1959001;72;21107;-73
2022/01/20 10:17:15;;;;;;;15.13;9.53;;;27.90;60.40;;;;;;1959558;72;21527;-72
2022/01/20 10:19:46;;;;;;;12.58;7.97;;;27.80;60.40;;;;;;1956864;72;21750;-87
2022/01/20 10:22:45;;;;;;;;;;;;;;;;;;;;;
2022/01/20 10:25:21;;;;;;;11.75;8.53;;;27.80;60.70;;;;;;1882272;75;21146;-87
2022/01/20 10:27:57;;;;;;;12.23;8.53;;;27.70;60.80;;;;;;1875348;74;21108;-87
2022/01/20 10:30:38;;;;;;;14.35;8.58;;;27.70;60.80;;;;;;1870632;75;21603;-87
2022/01/20 10:33:08;;;;;;;14.65;8.00;;;27.70;60.90;;;;;;1890325;74;21667;-88
2022/01/20 10:35:40;;;;;;;15.75;9.28;;;27.60;61.10;;;;;;1923792;73;21074;-86
2022/01/20 10:38:17;;;;;;;18.98;11.90;;;27.60;61.20;;;;;;1906478;73;21473;-86
2022/01/20 10:40:46;;;;;;;22.35;14.53;;;27.60;61.40;;;;;;1912378;72;21111;-87
2022/01/20 10:43:19;;;;;;;17.12;11.63;;;27.60;61.60;;;;;;1870668;75;21579;-84
2022/01/20 10:45:52;;;;;;;14.85;10.58;;;27.60;61.60;;;;;;1945978;72;21162;-89
2022/01/20 10:48:27;;;;;;;18.35;9.80;;;27.50;61.70;;;;;;1957494;72;21681;-89
2022/01/20 10:50:57;;;;;;;16.57;9.80;;;27.50;61.90;;;;;;1964568;72;21119;-88
2022/01/20 10:53:28;;;;;;;14.70;9.63;;;27.40;61.90;;;;;;1966653;72;21120;-89
2022/01/20 10:56:01;;;;;;;16.30;9.23;;;27.40;62.20;;;;;;1972202;71;21741;-89
2022/01/20 10:58:38;;;;;;;13.03;8.78;;;27.40;62.40;;;;;;1944380;72;21163;-88
2022/01/20 11:01:11;;;;;;;15.35;9.25;;;27.30;62.70;;;;;;1903641;73;21162;-89
2022/01/20 11:03:47;;;;;;;16.55;9.68;;;27.30;62.80;;;;;;1868972;76;21170;-89
2022/01/20 11:06:21;;;;;;;12.60;9.05;;;27.30;62.90;;;;;;1899809;74;21136;-89
2022/01/20 11:08:54;;;;;;;16.35;9.00;;;27.20;63.00;;;;;;1909756;75;21088;-88
2022/01/20 11:11:28;;;;;;;16.50;9.33;;;27.20;63.20;;;;;;1901066;74;21185;-89
2022/01/20 11:13:59;;;;;;;14.63;9.03;;;27.20;63.40;;;;;;1892941;75;21056;-89
2022/01/20 11:16:31;;;;;;;19.80;9.23;;;27.10;63.50;;;;;;1903299;73;21133;-89
2022/01/20 11:19:03;;;;;;;18.62;9.55;;;27.10;63.70;;;;;;1957741;72;21204;-88
2022/01/20 11:21:36;;;;;;;17.80;8.83;;;27.10;63.70;;;;;;1948858;73;21263;-89
2022/01/20 11:24:07;;;;;;;15.20;9.53;;;27.10;63.80;;;;;;1914055;73;21141;-88
2022/01/20 11:26:39;;;;;;;13.83;8.30;;;27.00;63.90;;;;;;1921207;74;21153;-88
2022/01/20 11:29:12;;;;;;;13.72;9.53;;;27.00;63.90;;;;;;1890481;75;21087;-89
2022/01/20 11:31:43;;;;;;;16.55;9.75;;;27.00;63.90;;;;;;1917972;74;21133;-88
2022/01/20 11:34:18;;;;;;;17.15;10.05;;;27.00;64.00;;;;;;1887248;75;21177;-88
2022/01/20 11:36:49;;;;;;;14.87;9.85;;;27.00;64.10;;;;;;1933943;74;21070;-89
2022/01/20 11:39:24;;;;;;;21.48;12.28;;;27.00;64.00;;;;;;1913165;74;21048;-89
2022/01/20 11:41:56;;;;;;;17.95;11.68;;;27.00;64.10;;;;;;1925025;74;21135;-89
2022/01/20 11:44:31;;;;;;;17.90;11.85;;;27.00;64.10;;;;;;1906076;74;21139;-89
2022/01/20 11:47:04;;;;;;;17.35;11.95;;;26.90;64.10;;;;;;1918358;73;21117;-87
2022/01/20 11:49:37;;;;;;;17.57;12.00;;;26.90;64.10;;;;;;1920399;73;21637;-88
2022/01/20 11:52:09;;;;;;;16.30;11.38;;;26.90;64.10;;;;;;1901692;74;21218;-88
2022/01/20 11:54:43;;;;;;;16.48;11.65;;;26.90;64.20;;;;;;1925309;74;22010;-88
2022/01/20 11:57:16;;;;;;;18.30;12.63;;;26.90;64.30;;;;;;1904368;73;21119;-89
2022/01/20 11:59:51;;;;;;;22.05;13.20;;;26.90;64.30;;;;;;1947830;73;21475;-88
2022/01/20 12:02:24;;;;;;;18.77;13.05;;;26.90;64.30;;;;;;1943377;73;21213;-89
2022/01/20 12:04:56;;;;;;;21.05;13.38;;;26.90;64.50;;;;;;1890196;74;21141;-87
2022/01/20 12:07:29;;;;;;;18.70;11.83;;;26.80;64.50;;;;;;1893460;74;21104;-87
2022/01/20 12:10:04;;;;;;;21.95;12.50;;;26.80;64.40;;;;;;1882552;75;21268;-88
2022/01/20 12:12:36;;;;;;;18.87;12.50;;;26.90;64.50;;;;;;1914198;74;21640;-89
2022/01/20 12:15:09;;;;;;;24.12;12.95;;;26.80;64.60;;;;;;1948238;73;21242;-88
2022/01/20 12:17:41;;;;;;;26.15;15.65;;;26.80;64.80;;;;;;1897526;74;21698;-89
2022/01/20 12:20:12;;;;;;;24.67;13.60;;;26.80;64.90;;;;;;1913822;73;21139;-88
2022/01/20 12:22:45;;;;;;;22.85;13.40;;;26.80;65.10;;;;;;1922047;74;21099;-88
2022/01/20 12:25:17;;;;;;;20.43;13.48;;;26.80;65.40;;;;;;1876339;75;21228;-90
2022/01/20 12:27:51;;;;;;;22.10;13.08;;;26.80;65.50;;;;;;1915061;74;21219;-89
2022/01/20 12:30:25;;;;;;;25.32;14.13;;;26.80;65.70;;;;;;1949118;73;21188;-90
2022/01/20 12:32:56;;;;;;;22.67;13.08;;;26.80;65.70;;;;;;1917969;73;21201;-90
2022/01/20 12:35:29;;;;;;;23.85;12.43;;;26.80;65.80;;;;;;1949550;73;21122;-89
2022/01/20 12:38:00;;;;;;;21.25;13.20;;;26.70;65.60;;;;;;1930371;72;21107;-89
2022/01/20 12:40:31;;;;;;;17.60;12.33;;;26.70;65.70;;;;;;1882252;74;21364;-89
2022/01/20 12:43:01;;;;;;;17.90;11.68;;;26.70;65.70;;;;;;1856265;76;21129;-89
2022/01/20 12:48:07;;;;;;;23.90;13.32;;;26.70;65.80;;;;;;1869844;74;21184;-88
2022/01/20 12:50:38;;;;;;;18.77;12.23;;;26.70;66.00;;;;;;1945750;73;21513;-89
2022/01/20 12:53:08;;;;;;;23.42;12.78;;;26.70;66.20;;;;;;1951166;72;21193;-90
2022/01/20 12:55:39;;;;;;;23.95;13.13;;;26.70;66.30;;;;;;1952119;72;21067;-89
2022/01/20 12:58:13;;;;;;;22.17;13.40;;;26.60;66.40;;;;;;1946078;72;21302;-90
2022/01/20 13:00:43;;;;;;;20.65;12.95;;;26.70;66.70;;;;;;1945270;73;21196;-90
2022/01/20 13:03:14;;;;;;;22.32;14.05;;;26.60;66.70;;;;;;1901183;74;21173;-89
2022/01/20 13:05:47;;;;;;;20.75;13.32;;;26.60;66.80;;;;;;1949700;73;21172;-88
2022/01/20 13:08:21;;;;;;;20.45;13.75;;;26.60;66.90;;;;;;1883401;74;21203;-87
2022/01/20 13:10:53;;;;;;;24.18;13.43;;;26.60;66.90;;;;;;1883799;74;21096;-87
2022/01/20 13:13:24;;;;;;;23.30;13.88;;;26.60;66.90;;;;;;1890645;74;21137;-88
2022/01/20 13:15:55;;;;;;;22.65;14.28;;;26.60;66.90;;;;;;1873780;75;21111;-89
2022/01/20 13:18:26;;;;;;;23.15;13.00;;;26.60;66.90;;;;;;1880150;75;21075;-89
2022/01/20 13:20:59;;;;;;;28.50;13.40;;;26.60;66.90;;;;;;1888941;74;21194;-89
2022/01/20 13:26:01;;;;;;;22.15;13.18;;;26.50;66.90;;;;;;1952871;72;21051;-89
2022/01/20 13:28:32;;;;;;;22.02;12.58;;;26.50;67.00;;;;;;1891579;75;21163;-90
2022/01/20 13:31:05;;;;;;;18.10;12.20;;;26.50;67.00;;;;;;1879377;74;21176;-89
2022/01/20 13:33:37;;;;;;;21.60;12.82;;;26.50;67.20;;;;;;1871105;76;21148;-88
2022/01/20 13:36:09;;;;;;;21.37;12.75;;;26.50;67.10;;;;;;1870508;77;21104;-91
2022/01/20 13:38:48;;;;;;;22.50;12.88;;;26.50;67.20;;;;;;1870619;77;21190;-90
2022/01/20 13:41:19;;;;;;;22.85;12.98;;;26.50;67.10;;;;;;1869597;77;21189;-89
2022/01/20 13:46:25;;;;;;;21.52;13.60;;;26.50;67.20;;;;;;1867569;77;21599;-89
2022/01/20 13:48:57;;;;;;;23.02;12.30;;;26.50;67.20;;;;;;1869269;75;21136;-89
2022/01/20 13:51:28;;;;;;;21.52;12.63;;;26.40;67.10;;;;;;1876413;74;21110;-89
2022/01/20 13:54:00;;;;;;;23.25;12.88;;;26.40;67.20;;;;;;1861232;75;21587;-88
2022/01/20 13:56:32;;;;;;;21.42;12.45;;;26.50;67.40;;;;;;1870892;75;21565;-89
2022/01/20 13:59:06;;;;;;;21.65;14.43;;;26.40;67.40;;;;;;1872939;75;21141;-89
2022/01/20 14:01:41;;;;;;;20.95;13.93;;;26.40;67.50;;;;;;1867447;74;21096;-87
2022/01/20 14:04:10;;;;;;;23.50;13.32;;;26.40;67.60;;;;;;1870856;77;21138;-89
2022/01/20 14:06:41;;;;;;;23.05;13.50;;;26.40;67.50;;;;;;1847497;76;21183;-90